Time;durP1;ratioP1;P1;durP2;ratioP2;P2;SDS_P1;SDS_P2;PMS_P1;PMS_P2;Temp;Humidity;BMP_temperature;BMP_pressure;BME280_temperature;BME280_humidity;BME280_pressure;Samples;Min_cycle;Max_cycle;Signal;HPM_P1;HPM_P2
2023/12/30 00:00:39;;;;;;;2.93;0.70;;;;;;;;;;4956913;28;20218;-64
2023/12/30 00:03:06;;;;;;;0.80;0.80;;;;;;;;;;4968310;28;20213;-65
2023/12/30 00:05:33;;;;;;;4.97;1.17;;;;;;;;;;4968544;28;20207;-65
2023/12/30 00:08:00;;;;;;;2.70;0.70;;;;;;;;;;4968524;28;20218;-65
2023/12/30 00:10:30;;;;;;;0.90;0.90;;;;;;;;;;4967893;28;20233;-65
2023/12/30 00:12:57;;;;;;;2.40;0.90;;;;;;;;;;4967716;28;20317;-64
2023/12/30 00:15:24;;;;;;;4.07;0.90;;;;;;;;;;4968066;28;20207;-64
2023/12/30 00:17:51;;;;;;;1.57;0.70;;;;;;;;;;4968215;28;20203;-65
2023/12/30 00:20:18;;;;;;;3.27;0.83;;;;;;;;;;4967114;28;20210;-65
2023/12/30 00:22:45;;;;;;;0.57;0.57;;;;;;;;;;4964365;28;20576;-65
2023/12/30 00:25:12;;;;;;;0.60;0.60;;;;;;;;;;4966907;28;20203;-65
2023/12/30 00:27:41;;;;;;;3.40;0.93;;;;;;;;;;4968044;28;20422;-64
2023/12/30 00:30:08;;;;;;;1.87;0.60;;;;;;;;;;4967617;28;20217;-64
2023/12/30 00:32:35;;;;;;;2.53;0.70;;;;;;;;;;4967578;28;20233;-64
2023/12/30 00:35:02;;;;;;;2.10;0.60;;;;;;;;;;4962929;28;20210;-64
2023/12/30 00:37:29;;;;;;;1.00;0.63;;;;;;;;;;4967289;28;20213;-65
2023/12/30 00:39:56;;;;;;;0.93;0.63;;;;;;;;;;4965197;28;20927;-65
2023/12/30 00:42:24;;;;;;;1.70;0.63;;;;;;;;;;4967280;28;20215;-65
2023/12/30 00:44:52;;;;;;;1.07;0.97;;;;;;;;;;4967538;28;20457;-66
2023/12/30 00:47:19;;;;;;;2.57;1.13;;;;;;;;;;4967537;28;20214;-64
2023/12/30 00:49:46;;;;;;;0.70;0.67;;;;;;;;;;4966919;28;20210;-64
2023/12/30 00:52:13;;;;;;;0.70;0.70;;;;;;;;;;4967128;28;20241;-64
2023/12/30 00:54:40;;;;;;;0.47;0.47;;;;;;;;;;4967730;28;20325;-65
2023/12/30 00:57:07;;;;;;;2.00;0.80;;;;;;;;;;4963406;28;20210;-67
2023/12/30 00:59:34;;;;;;;1.23;0.50;;;;;;;;;;4966368;28;20214;-64
2023/12/30 01:02:02;;;;;;;0.63;0.63;;;;;;;;;;4957654;28;20210;-65
2023/12/30 01:04:29;;;;;;;0.50;0.50;;;;;;;;;;4966519;28;20206;-64
2023/12/30 01:06:57;;;;;;;1.33;0.63;;;;;;;;;;4966982;28;20211;-65
2023/12/30 01:09:24;;;;;;;0.80;0.80;;;;;;;;;;4966525;28;20242;-65
2023/12/30 01:11:51;;;;;;;4.63;0.60;;;;;;;;;;4966378;28;20225;-65
2023/12/30 01:14:18;;;;;;;0.40;0.40;;;;;;;;;;4966219;28;20222;-65
2023/12/30 01:16:45;;;;;;;0.60;0.60;;;;;;;;;;4966323;28;20205;-65
2023/12/30 01:19:14;;;;;;;0.67;0.60;;;;;;;;;;4967159;28;20210;-65
2023/12/30 01:21:41;;;;;;;2.03;0.50;;;;;;;;;;4966179;28;20720;-65
2023/12/30 01:24:10;;;;;;;2.50;0.53;;;;;;;;;;4966585;28;20241;-64
2023/12/30 01:26:38;;;;;;;1.80;0.80;;;;;;;;;;4966705;28;20206;-65
2023/12/30 01:29:05;;;;;;;1.07;0.63;;;;;;;;;;4966118;28;20260;-65
2023/12/30 01:31:34;;;;;;;1.27;0.60;;;;;;;;;;4966633;28;20288;-65
2023/12/30 01:34:01;;;;;;;1.70;0.43;;;;;;;;;;4966840;28;20261;-65
2023/12/30 01:36:29;;;;;;;1.27;0.70;;;;;;;;;;4966367;28;20665;-65
2023/12/30 01:38:56;;;;;;;0.90;0.50;;;;;;;;;;4966014;28;20707;-64
2023/12/30 01:41:24;;;;;;;2.10;0.40;;;;;;;;;;4966683;28;20202;-65
2023/12/30 01:43:51;;;;;;;0.77;0.60;;;;;;;;;;4966909;28;20194;-64
2023/12/30 01:46:18;;;;;;;0.97;0.40;;;;;;;;;;4966545;28;20666;-64
2023/12/30 01:48:45;;;;;;;0.60;0.60;;;;;;;;;;4964129;28;20215;-65
2023/12/30 01:51:12;;;;;;;2.30;0.53;;;;;;;;;;4965493;28;20225;-65
2023/12/30 01:53:40;;;;;;;5.60;0.70;;;;;;;;;;4966719;28;20873;-65
2023/12/30 01:56:08;;;;;;;2.37;0.50;;;;;;;;;;4964414;28;20210;-64
2023/12/30 01:58:35;;;;;;;1.70;0.63;;;;;;;;;;4966405;28;20621;-64
2023/12/30 02:01:04;;;;;;;0.87;0.50;;;;;;;;;;4964874;28;20672;-64
2023/12/30 02:03:31;;;;;;;3.17;0.60;;;;;;;;;;4966443;28;20277;-65
2023/12/30 02:05:58;;;;;;;1.97;0.50;;;;;;;;;;4966220;28;20210;-65
2023/12/30 02:08:26;;;;;;;1.07;0.37;;;;;;;;;;4966365;28;20272;-65
2023/12/30 02:10:54;;;;;;;1.53;0.40;;;;;;;;;;4966145;28;20209;-65
2023/12/30 02:13:21;;;;;;;2.43;0.47;;;;;;;;;;4965913;28;20238;-65
2023/12/30 02:15:48;;;;;;;1.47;0.60;;;;;;;;;;4966060;28;20207;-64
2023/12/30 02:18:15;;;;;;;1.70;0.50;;;;;;;;;;4965958;28;20269;-65
2023/12/30 02:20:42;;;;;;;1.80;0.60;;;;;;;;;;4967599;28;20261;-65
2023/12/30 02:23:10;;;;;;;3.50;0.73;;;;;;;;;;4969894;28;20238;-64
2023/12/30 02:25:38;;;;;;;0.40;0.40;;;;;;;;;;4969547;28;20233;-65
2023/12/30 02:28:05;;;;;;;0.60;0.40;;;;;;;;;;4969551;28;20340;-65
2023/12/30 02:30:32;;;;;;;3.13;0.50;;;;;;;;;;4970167;28;20728;-64
2023/12/30 02:32:59;;;;;;;1.17;0.40;;;;;;;;;;4969923;28;20219;-64
2023/12/30 02:35:27;;;;;;;0.50;0.40;;;;;;;;;;4969792;28;20222;-65
2023/12/30 02:37:54;;;;;;;1.50;0.30;;;;;;;;;;4969676;28;20202;-67
2023/12/30 02:40:22;;;;;;;0.30;0.30;;;;;;;;;;4969748;28;20214;-64
2023/12/30 02:42:49;;;;;;;0.47;0.47;;;;;;;;;;4969299;28;20265;-65
2023/12/30 02:45:17;;;;;;;1.70;0.63;;;;;;;;;;4970030;28;20261;-65
2023/12/30 02:47:44;;;;;;;1.60;0.50;;;;;;;;;;4969102;28;20217;-65
2023/12/30 02:50:11;;;;;;;2.10;0.53;;;;;;;;;;4969191;28;20210;-65
2023/12/30 02:52:38;;;;;;;0.40;0.40;;;;;;;;;;4969165;28;20210;-65
2023/12/30 02:55:06;;;;;;;1.67;0.40;;;;;;;;;;4969603;28;20312;-65
2023/12/30 02:57:34;;;;;;;1.70;0.50;;;;;;;;;;4969171;28;20277;-65
2023/12/30 03:00:01;;;;;;;2.67;0.60;;;;;;;;;;4969182;28;20221;-65
2023/12/30 03:02:28;;;;;;;2.40;0.50;;;;;;;;;;4968505;28;20669;-65
2023/12/30 03:04:57;;;;;;;0.50;0.50;;;;;;;;;;4969222;28;20198;-65
2023/12/30 03:07:24;;;;;;;0.70;0.40;;;;;;;;;;4969166;28;20210;-65
2023/12/30 03:09:51;;;;;;;2.13;0.57;;;;;;;;;;4968853;28;20214;-65
2023/12/30 03:12:18;;;;;;;0.77;0.40;;;;;;;;;;4968738;28;20272;-64
2023/12/30 03:14:47;;;;;;;2.87;0.60;;;;;;;;;;4968781;28;20651;-65
2023/12/30 03:17:14;;;;;;;2.27;0.73;;;;;;;;;;4968181;28;20211;-64
2023/12/30 03:19:41;;;;;;;2.07;0.50;;;;;;;;;;4968950;28;20293;-64
2023/12/30 03:22:08;;;;;;;1.27;0.50;;;;;;;;;;4968133;28;20297;-64
2023/12/30 03:24:35;;;;;;;2.33;0.60;;;;;;;;;;4969004;28;20250;-64
2023/12/30 03:27:03;;;;;;;0.60;0.50;;;;;;;;;;4968424;28;20217;-64
2023/12/30 03:29:30;;;;;;;0.57;0.57;;;;;;;;;;4968725;28;20221;-64
2023/12/30 03:31:58;;;;;;;1.60;0.60;;;;;;;;;;4967662;28;20652;-64
2023/12/30 03:34:25;;;;;;;1.17;0.67;;;;;;;;;;4967990;28;20237;-64
2023/12/30 03:36:52;;;;;;;1.20;0.80;;;;;;;;;;4968421;28;20204;-64
2023/12/30 03:39:19;;;;;;;2.10;0.80;;;;;;;;;;4968500;28;20251;-65
2023/12/30 03:41:46;;;;;;;1.17;0.60;;;;;;;;;;4967796;28;20202;-65
2023/12/30 03:44:13;;;;;;;0.73;0.60;;;;;;;;;;4968131;28;20209;-65
2023/12/30 03:46:41;;;;;;;1.80;0.40;;;;;;;;;;4968067;28;20206;-65
2023/12/30 03:49:09;;;;;;;5.17;0.60;;;;;;;;;;4967670;28;20309;-65
2023/12/30 03:51:36;;;;;;;0.60;0.50;;;;;;;;;;4967992;28;20226;-65
2023/12/30 03:54:03;;;;;;;0.60;0.60;;;;;;;;;;4957417;28;20437;-65
2023/12/30 03:56:32;;;;;;;1.40;0.80;;;;;;;;;;4968389;28;20213;-65
2023/12/30 03:59:00;;;;;;;2.57;0.50;;;;;;;;;;4949219;29;20218;-65
2023/12/30 04:01:27;;;;;;;1.63;0.60;;;;;;;;;;4959003;28;20301;-65
2023/12/30 04:03:54;;;;;;;2.63;0.37;;;;;;;;;;4967932;28;20218;-65
2023/12/30 04:06:22;;;;;;;2.10;0.57;;;;;;;;;;4967725;28;20209;-65
2023/12/30 04:08:49;;;;;;;2.50;0.70;;;;;;;;;;4968444;28;20215;-65
2023/12/30 04:11:16;;;;;;;4.20;0.60;;;;;;;;;;4968106;28;20210;-65
2023/12/30 04:13:43;;;;;;;2.90;0.47;;;;;;;;;;4967534;28;20211;-65
2023/12/30 04:16:10;;;;;;;1.77;0.40;;;;;;;;;;4967209;28;20206;-65
2023/12/30 04:18:38;;;;;;;1.47;0.60;;;;;;;;;;4968316;28;20206;-65
2023/12/30 04:21:05;;;;;;;0.43;0.40;;;;;;;;;;4967767;28;20230;-65
2023/12/30 04:23:34;;;;;;;2.10;0.70;;;;;;;;;;4967574;28;20608;-65
2023/12/30 04:26:01;;;;;;;2.20;0.50;;;;;;;;;;4967154;28;20210;-65
2023/12/30 04:28:28;;;;;;;2.00;0.50;;;;;;;;;;4967750;28;20205;-65
2023/12/30 04:30:55;;;;;;;2.33;0.83;;;;;;;;;;4967300;28;20206;-65
2023/12/30 04:33:22;;;;;;;1.23;0.60;;;;;;;;;;4967931;28;20641;-65
2023/12/30 04:35:49;;;;;;;1.93;0.70;;;;;;;;;;4967769;28;20328;-65
2023/12/30 04:38:18;;;;;;;2.17;1.07;;;;;;;;;;4967334;28;20211;-65
2023/12/30 04:40:46;;;;;;;3.43;0.50;;;;;;;;;;4967582;28;20210;-65
2023/12/30 04:43:13;;;;;;;2.60;0.63;;;;;;;;;;4965382;28;20217;-65
2023/12/30 04:45:40;;;;;;;1.27;0.50;;;;;;;;;;4967518;28;20813;-65
2023/12/30 04:48:07;;;;;;;2.60;0.47;;;;;;;;;;4967300;28;20210;-65
2023/12/30 04:50:34;;;;;;;2.10;0.80;;;;;;;;;;4967322;28;20211;-65
2023/12/30 04:53:01;;;;;;;0.83;0.60;;;;;;;;;;4967404;28;20218;-65
2023/12/30 04:55:28;;;;;;;1.97;0.70;;;;;;;;;;4966852;28;20234;-65
2023/12/30 04:57:57;;;;;;;3.63;0.70;;;;;;;;;;4967358;28;20206;-65
2023/12/30 05:00:24;;;;;;;1.33;0.50;;;;;;;;;;4966981;28;20214;-65
2023/12/30 05:02:51;;;;;;;3.90;0.80;;;;;;;;;;4967296;28;20210;-65
2023/12/30 05:05:18;;;;;;;1.50;0.80;;;;;;;;;;4966802;28;20195;-65
2023/12/30 05:07:45;;;;;;;4.63;1.20;;;;;;;;;;4967096;28;20274;-65
2023/12/30 05:10:12;;;;;;;1.90;0.53;;;;;;;;;;4967211;28;20210;-65
2023/12/30 05:12:39;;;;;;;4.77;1.10;;;;;;;;;;4967339;28;20214;-65
2023/12/30 05:15:08;;;;;;;3.20;0.60;;;;;;;;;;4966741;28;20222;-65
2023/12/30 05:17:36;;;;;;;0.67;0.60;;;;;;;;;;4967041;28;20213;-64
2023/12/30 05:20:06;;;;;;;1.67;0.53;;;;;;;;;;4967103;28;20294;-65
2023/12/30 05:22:33;;;;;;;0.60;0.60;;;;;;;;;;4967059;28;20313;-65
2023/12/30 05:25:00;;;;;;;2.13;0.47;;;;;;;;;;4966813;28;20226;-65
2023/12/30 05:27:27;;;;;;;5.50;0.70;;;;;;;;;;4966677;28;20292;-64
2023/12/30 05:29:54;;;;;;;3.07;0.53;;;;;;;;;;4966672;28;20887;-66
2023/12/30 05:32:23;;;;;;;3.37;1.20;;;;;;;;;;4966720;28;20205;-65
2023/12/30 05:34:50;;;;;;;3.27;0.67;;;;;;;;;;4966917;28;20230;-65
2023/12/30 05:37:17;;;;;;;2.27;0.90;;;;;;;;;;4966712;28;20210;-65
2023/12/30 05:39:44;;;;;;;4.40;0.90;;;;;;;;;;4966874;28;20770;-65
2023/12/30 05:42:11;;;;;;;2.80;0.70;;;;;;;;;;4966549;28;20661;-64
2023/12/30 05:44:38;;;;;;;3.03;0.70;;;;;;;;;;4966794;28;20343;-65
2023/12/30 05:47:05;;;;;;;3.47;0.67;;;;;;;;;;4966881;28;20589;-65
2023/12/30 05:49:35;;;;;;;1.93;0.73;;;;;;;;;;4966727;28;20665;-65
2023/12/30 05:52:02;;;;;;;0.97;0.60;;;;;;;;;;4966308;28;20206;-66
2023/12/30 05:54:29;;;;;;;3.87;0.70;;;;;;;;;;4968346;28;20285;-65
2023/12/30 05:56:56;;;;;;;1.60;0.67;;;;;;;;;;4968735;28;20222;-65
2023/12/30 05:59:23;;;;;;;2.00;0.80;;;;;;;;;;4970467;28;20218;-65
2023/12/30 06:01:50;;;;;;;2.40;0.93;;;;;;;;;;4970544;28;20296;-65
2023/12/30 06:04:17;;;;;;;2.53;1.07;;;;;;;;;;4970331;28;20236;-64
2023/12/30 06:06:46;;;;;;;2.00;0.80;;;;;;;;;;4970307;28;20213;-65
2023/12/30 06:09:13;;;;;;;2.80;0.80;;;;;;;;;;4970057;28;20630;-65
2023/12/30 06:11:40;;;;;;;1.53;0.70;;;;;;;;;;4969022;28;20214;-65
2023/12/30 06:14:07;;;;;;;1.03;0.93;;;;;;;;;;4968184;28;20281;-65
2023/12/30 06:16:34;;;;;;;3.10;0.73;;;;;;;;;;4965260;28;20237;-65
2023/12/30 06:19:01;;;;;;;4.13;0.90;;;;;;;;;;4965778;28;20214;-65
2023/12/30 06:21:28;;;;;;;2.10;1.10;;;;;;;;;;4966638;28;20285;-65
2023/12/30 06:23:56;;;;;;;1.63;0.90;;;;;;;;;;4965635;28;20300;-65
2023/12/30 06:26:23;;;;;;;1.40;1.00;;;;;;;;;;4977827;28;20268;-65
2023/12/30 06:28:50;;;;;;;3.63;1.10;;;;;;;;;;4975133;28;20625;-65
2023/12/30 06:31:17;;;;;;;0.77;0.77;;;;;;;;;;4984755;28;20283;-65
2023/12/30 06:33:44;;;;;;;4.33;1.50;;;;;;;;;;4971907;28;20214;-65
2023/12/30 06:36:20;;;;;;;6.43;0.80;;;;;;;;;;4969674;28;20234;-65
2023/12/30 06:38:47;;;;;;;2.80;0.60;;;;;;;;;;4969843;28;20210;-65
2023/12/30 06:41:18;;;;;;;1.30;0.70;;;;;;;;;;4969276;28;20206;-65
2023/12/30 06:43:45;;;;;;;3.17;0.73;;;;;;;;;;4970053;28;20554;-65
2023/12/30 06:46:12;;;;;;;2.97;0.93;;;;;;;;;;4969406;28;20576;-65
2023/12/30 06:48:39;;;;;;;2.57;0.90;;;;;;;;;;4969388;28;20751;-65
2023/12/30 06:51:10;;;;;;;1.33;0.73;;;;;;;;;;4969106;28;20467;-65
2023/12/30 06:53:37;;;;;;;2.93;0.60;;;;;;;;;;4967504;28;20214;-65
2023/12/30 06:56:04;;;;;;;2.87;0.60;;;;;;;;;;4969513;28;20238;-65
2023/12/30 06:58:33;;;;;;;1.83;0.40;;;;;;;;;;4969030;28;20219;-65
2023/12/30 07:01:00;;;;;;;3.20;0.93;;;;;;;;;;4969025;28;20210;-65
2023/12/30 07:03:27;;;;;;;4.90;1.00;;;;;;;;;;4969194;28;20281;-65
2023/12/30 07:05:54;;;;;;;0.60;0.60;;;;;;;;;;4968497;28;20665;-65
2023/12/30 07:08:21;;;;;;;2.03;0.93;;;;;;;;;;4968798;28;20257;-65
2023/12/30 07:10:48;;;;;;;1.90;0.60;;;;;;;;;;4969358;28;20253;-66
2023/12/30 07:13:15;;;;;;;2.20;0.50;;;;;;;;;;4968440;28;20210;-65
2023/12/30 07:15:44;;;;;;;4.17;0.60;;;;;;;;;;4968919;28;20712;-65
2023/12/30 07:18:11;;;;;;;1.33;0.60;;;;;;;;;;4968994;28;20581;-65
2023/12/30 07:20:38;;;;;;;1.70;0.60;;;;;;;;;;4968362;28;20229;-65
2023/12/30 07:23:06;;;;;;;2.27;0.60;;;;;;;;;;4968383;28;20250;-64
2023/12/30 07:25:33;;;;;;;0.97;0.63;;;;;;;;;;4968943;28;20576;-65
2023/12/30 07:28:00;;;;;;;0.83;0.60;;;;;;;;;;4952859;28;20657;-65
2023/12/30 07:30:27;;;;;;;0.60;0.60;;;;;;;;;;4968412;28;20209;-65
2023/12/30 07:32:56;;;;;;;2.33;0.53;;;;;;;;;;4968360;28;20210;-64
2023/12/30 07:35:24;;;;;;;1.17;0.40;;;;;;;;;;4968409;28;20670;-64
2023/12/30 07:37:51;;;;;;;1.80;0.50;;;;;;;;;;4968357;28;20210;-65
2023/12/30 07:40:18;;;;;;;1.63;0.50;;;;;;;;;;4968365;28;20281;-65
2023/12/30 07:42:45;;;;;;;0.50;0.50;;;;;;;;;;4968312;28;20210;-65
2023/12/30 07:45:12;;;;;;;0.73;0.33;;;;;;;;;;4968543;28;20218;-65
2023/12/30 07:47:40;;;;;;;2.90;0.47;;;;;;;;;;4968250;28;20888;-64
2023/12/30 07:50:10;;;;;;;1.70;0.47;;;;;;;;;;4968253;28;20301;-65
2023/12/30 07:52:37;;;;;;;2.00;0.70;;;;;;;;;;4966761;28;20206;-64
2023/12/30 07:55:05;;;;;;;0.60;0.40;;;;;;;;;;4968356;28;20253;-67
2023/12/30 07:57:32;;;;;;;1.03;0.40;;;;;;;;;;4968894;28;20214;-65
2023/12/30 07:59:59;;;;;;;0.93;0.63;;;;;;;;;;4968054;28;20237;-65
2023/12/30 08:02:26;;;;;;;0.60;0.30;;;;;;;;;;4967886;28;20266;-66
2023/12/30 08:04:54;;;;;;;1.27;0.50;;;;;;;;;;4968613;28;20214;-65
2023/12/30 08:07:22;;;;;;;1.40;0.50;;;;;;;;;;4968080;28;20203;-65
2023/12/30 08:09:49;;;;;;;1.53;0.90;;;;;;;;;;4968377;28;20257;-65
2023/12/30 08:12:16;;;;;;;3.30;0.50;;;;;;;;;;4964498;28;20202;-65
2023/12/30 08:14:43;;;;;;;1.20;0.70;;;;;;;;;;4964105;28;21016;-66
2023/12/30 08:17:11;;;;;;;2.37;0.60;;;;;;;;;;4966882;28;20234;-64
2023/12/30 08:19:37;;;;;;;1.80;0.63;;;;;;;;;;4966831;28;20233;-65
2023/12/30 08:22:05;;;;;;;2.63;0.60;;;;;;;;;;4967645;28;20237;-65
2023/12/30 08:24:33;;;;;;;2.37;0.90;;;;;;;;;;4967972;28;20238;-66
2023/12/30 08:27:00;;;;;;;1.90;0.83;;;;;;;;;;4968026;28;20665;-67
2023/12/30 08:29:27;;;;;;;3.07;0.80;;;;;;;;;;4967342;28;20210;-66
2023/12/30 08:31:54;;;;;;;4.53;1.07;;;;;;;;;;4967375;28;20265;-66
2023/12/30 08:34:21;;;;;;;4.07;0.90;;;;;;;;;;4968112;28;20591;-66
2023/12/30 08:36:48;;;;;;;3.03;0.90;;;;;;;;;;4973774;28;20314;-66
2023/12/30 08:39:15;;;;;;;2.87;1.07;;;;;;;;;;4987491;28;20205;-66
2023/12/30 08:41:43;;;;;;;3.17;1.00;;;;;;;;;;4978565;28;20214;-66
2023/12/30 08:44:10;;;;;;;2.73;1.33;;;;;;;;;;4963790;28;20214;-66
2023/12/30 08:46:37;;;;;;;1.33;0.97;;;;;;;;;;4968018;28;20202;-66
2023/12/30 08:49:04;;;;;;;5.10;1.40;;;;;;;;;;4967514;28;20214;-66
2023/12/30 08:51:32;;;;;;;4.17;1.20;;;;;;;;;;4967899;28;20206;-66
2023/12/30 08:53:59;;;;;;;1.60;1.00;;;;;;;;;;4967311;28;20218;-66
2023/12/30 08:56:32;;;;;;;3.43;1.10;;;;;;;;;;4967563;28;20942;-66
2023/12/30 08:59:00;;;;;;;4.33;1.47;;;;;;;;;;4967582;28;20592;-66
2023/12/30 09:01:27;;;;;;;3.73;1.10;;;;;;;;;;4966799;28;20202;-67
2023/12/30 09:03:55;;;;;;;1.43;1.10;;;;;;;;;;4963058;28;20831;-65
2023/12/30 09:06:22;;;;;;;4.27;1.07;;;;;;;;;;4967478;28;20210;-67
2023/12/30 09:08:49;;;;;;;7.37;1.40;;;;;;;;;;4967084;28;20295;-67
2023/12/30 09:11:19;;;;;;;2.43;1.13;;;;;;;;;;4966939;28;20213;-67
2023/12/30 09:13:46;;;;;;;3.97;1.83;;;;;;;;;;4967057;28;20198;-67
2023/12/30 09:16:15;;;;;;;3.57;1.20;;;;;;;;;;4966757;28;20226;-67
2023/12/30 09:18:42;;;;;;;2.47;1.17;;;;;;;;;;4966479;28;20619;-67
2023/12/30 09:21:09;;;;;;;2.37;1.33;;;;;;;;;;4967001;28;20233;-66
2023/12/30 09:23:37;;;;;;;2.50;1.50;;;;;;;;;;4966403;28;20230;-65
2023/12/30 09:26:04;;;;;;;3.10;1.40;;;;;;;;;;4957800;28;20234;-66
2023/12/30 09:28:32;;;;;;;2.70;1.40;;;;;;;;;;4959977;28;20218;-66
2023/12/30 09:30:59;;;;;;;5.27;1.47;;;;;;;;;;4956278;28;20251;-65
2023/12/30 09:33:27;;;;;;;2.47;1.40;;;;;;;;;;4956635;28;20214;-68
2023/12/30 09:35:54;;;;;;;1.40;1.07;;;;;;;;;;4966782;28;20229;-65
2023/12/30 09:38:22;;;;;;;1.93;1.10;;;;;;;;;;4966798;28;20210;-65
2023/12/30 09:40:50;;;;;;;5.17;1.10;;;;;;;;;;4966920;28;20213;-66
2023/12/30 09:43:21;;;;;;;4.23;1.30;;;;;;;;;;4965903;28;20229;-66
2023/12/30 09:45:49;;;;;;;4.07;1.30;;;;;;;;;;4966452;28;20287;-66
2023/12/30 09:48:16;;;;;;;2.13;1.23;;;;;;;;;;4966959;28;20272;-65
2023/12/30 09:50:45;;;;;;;4.33;1.40;;;;;;;;;;4966011;28;20202;-65
2023/12/30 09:53:12;;;;;;;3.93;1.50;;;;;;;;;;4966150;28;20221;-67
2023/12/30 09:55:39;;;;;;;4.33;1.30;;;;;;;;;;4966196;28;20269;-64
2023/12/30 09:58:06;;;;;;;4.90;1.47;;;;;;;;;;4966612;28;20285;-63
2023/12/30 10:00:33;;;;;;;4.73;1.20;;;;;;;;;;4962179;28;20209;-64
2023/12/30 10:03:00;;;;;;;4.43;1.10;;;;;;;;;;4966242;28;20692;-65
2023/12/30 10:05:27;;;;;;;3.30;1.30;;;;;;;;;;4965550;28;20202;-68
2023/12/30 10:07:56;;;;;;;2.07;1.43;;;;;;;;;;4963722;28;20221;-67
2023/12/30 10:10:35;;;;;;;2.83;1.40;;;;;;;;;;4966218;28;20215;-65
2023/12/30 10:13:02;;;;;;;4.10;1.23;;;;;;;;;;4965335;28;20242;-66
2023/12/30 10:15:29;;;;;;;1.80;1.20;;;;;;;;;;4966598;28;20215;-66
2023/12/30 10:17:56;;;;;;;3.70;1.10;;;;;;;;;;4965523;28;20675;-65
2023/12/30 10:20:23;;;;;;;1.20;1.20;;;;;;;;;;4966268;28;20203;-66
2023/12/30 10:22:50;;;;;;;4.40;1.20;;;;;;;;;;4965759;28;20288;-69
2023/12/30 10:25:18;;;;;;;1.63;1.13;;;;;;;;;;4965526;28;20206;-66
2023/12/30 10:27:48;;;;;;;3.50;1.27;;;;;;;;;;4965118;28;20886;-66
2023/12/30 10:30:19;;;;;;;1.00;1.00;;;;;;;;;;4965166;28;20638;-64
2023/12/30 10:32:47;;;;;;;4.50;1.40;;;;;;;;;;4965897;28;20568;-68
2023/12/30 10:35:14;;;;;;;5.30;1.40;;;;;;;;;;4966691;28;20210;-66
2023/12/30 10:37:42;;;;;;;2.93;1.20;;;;;;;;;;4966434;28;20230;-67
2023/12/30 10:40:10;;;;;;;1.53;0.70;;;;;;;;;;4965122;28;20210;-66
2023/12/30 10:42:38;;;;;;;2.67;1.13;;;;;;;;;;4968621;28;20293;-63
2023/12/30 10:45:06;;;;;;;3.97;1.00;;;;;;;;;;4969470;28;20214;-64
2023/12/30 10:47:35;;;;;;;2.77;1.10;;;;;;;;;;4969975;28;20217;-65
2023/12/30 10:50:04;;;;;;;2.13;0.70;;;;;;;;;;4968215;28;20214;-65
2023/12/30 10:52:33;;;;;;;2.05;1.15;;;;;;;;;;4967655;28;20233;-65
2023/12/30 10:55:05;;;;;;;7.75;1.25;;;;;;;;;;4966224;28;20206;-65
2023/12/30 10:57:36;;;;;;;3.88;1.10;;;;;;;;;;4964890;28;20230;-64
2023/12/30 11:00:09;;;;;;;2.00;1.27;;;;;;;;;;4969275;28;20673;-64
2023/12/30 11:02:37;;;;;;;3.43;1.30;;;;;;;;;;4969294;28;20297;-64
2023/12/30 11:05:06;;;;;;;3.67;1.83;;;;;;;;;;4969297;28;20293;-66
2023/12/30 11:07:34;;;;;;;1.57;0.93;;;;;;;;;;4968994;28;20312;-64
2023/12/30 11:10:01;;;;;;;7.00;1.23;;;;;;;;;;4967214;28;20206;-63
2023/12/30 11:12:28;;;;;;;3.30;1.27;;;;;;;;;;4968882;28;20213;-63
2023/12/30 11:15:04;;;;;;;5.47;1.30;;;;;;;;;;4967480;28;20237;-63
2023/12/30 11:17:35;;;;;;;2.13;0.90;;;;;;;;;;4949705;29;20607;-63
2023/12/30 11:20:20;;;;;;;6.30;1.40;;;;;;;;;;4963976;28;20211;-63
2023/12/30 11:22:47;;;;;;;3.50;2.00;;;;;;;;;;4956056;28;20643;-63
2023/12/30 11:25:15;;;;;;;4.33;1.60;;;;;;;;;;4968631;28;20221;-63
2023/12/30 11:27:42;;;;;;;6.27;1.13;;;;;;;;;;4968808;28;20237;-63
2023/12/30 11:30:16;;;;;;;1.57;1.00;;;;;;;;;;4968497;28;20942;-63
2023/12/30 11:32:45;;;;;;;7.13;1.37;;;;;;;;;;4968336;28;20324;-66
2023/12/30 11:35:13;;;;;;;2.27;0.87;;;;;;;;;;4968511;28;20710;-70
2023/12/30 11:37:41;;;;;;;0.83;0.70;;;;;;;;;;4968473;28;20238;-70
2023/12/30 11:40:10;;;;;;;4.43;1.43;;;;;;;;;;4967313;28;20329;-63
2023/12/30 11:42:37;;;;;;;2.03;1.40;;;;;;;;;;4967693;28;20587;-71
2023/12/30 11:45:06;;;;;;;2.93;1.20;;;;;;;;;;4967693;28;20221;-72
2023/12/30 11:47:33;;;;;;;1.53;0.80;;;;;;;;;;4965781;28;20203;-68
2023/12/30 11:50:07;;;;;;;2.27;1.27;;;;;;;;;;4973466;28;20253;-69
2023/12/30 11:52:34;;;;;;;1.47;0.80;;;;;;;;;;4969477;28;20305;-68
2023/12/30 11:55:01;;;;;;;3.60;1.00;;;;;;;;;;4967510;28;20225;-68
2023/12/30 11:57:28;;;;;;;1.63;0.70;;;;;;;;;;4967245;28;20609;-68
2023/12/30 11:59:55;;;;;;;4.73;1.30;;;;;;;;;;4968075;28;20211;-64
2023/12/30 12:02:22;;;;;;;1.10;1.00;;;;;;;;;;4967576;28;20206;-69
2023/12/30 12:04:49;;;;;;;2.00;0.80;;;;;;;;;;4968251;28;20214;-67
2023/12/30 12:07:17;;;;;;;3.77;0.97;;;;;;;;;;4967314;28;20669;-63
2023/12/30 12:09:45;;;;;;;0.97;0.87;;;;;;;;;;4967815;28;20218;-63
2023/12/30 12:12:12;;;;;;;3.80;1.23;;;;;;;;;;4967688;28;20202;-63
2023/12/30 12:14:39;;;;;;;2.00;1.17;;;;;;;;;;4967985;28;20752;-66
2023/12/30 12:17:06;;;;;;;2.17;1.07;;;;;;;;;;4967659;28;20222;-62
2023/12/30 12:19:33;;;;;;;3.67;1.20;;;;;;;;;;4965857;28;20868;-65
2023/12/30 12:22:01;;;;;;;3.17;0.97;;;;;;;;;;4967483;28;20591;-64
2023/12/30 12:24:29;;;;;;;2.93;1.23;;;;;;;;;;4966940;28;20293;-64
2023/12/30 12:26:56;;;;;;;3.80;1.00;;;;;;;;;;4966722;28;20199;-64
2023/12/30 12:29:23;;;;;;;2.43;0.70;;;;;;;;;;4967377;28;20218;-67
2023/12/30 12:31:52;;;;;;;5.97;1.30;;;;;;;;;;4964678;28;20234;-64
2023/12/30 12:34:22;;;;;;;1.57;0.97;;;;;;;;;;4967190;28;20214;-64
2023/12/30 12:36:49;;;;;;;1.20;1.10;;;;;;;;;;4967534;28;20240;-64
2023/12/30 12:39:17;;;;;;;2.57;1.00;;;;;;;;;;4967512;28;20277;-64
2023/12/30 12:41:46;;;;;;;4.07;0.93;;;;;;;;;;4967159;28;20313;-64
2023/12/30 12:44:13;;;;;;;3.20;0.90;;;;;;;;;;4967153;28;20214;-64
2023/12/30 12:46:40;;;;;;;1.00;0.83;;;;;;;;;;4966690;28;20207;-64
2023/12/30 12:49:07;;;;;;;7.53;1.60;;;;;;;;;;4966168;28;20252;-64
2023/12/30 12:51:36;;;;;;;2.23;1.23;;;;;;;;;;4964161;28;20221;-63
2023/12/30 12:54:03;;;;;;;3.30;1.10;;;;;;;;;;4961392;28;20824;-63
2023/12/30 12:56:30;;;;;;;2.30;0.90;;;;;;;;;;4960920;28;20251;-64
2023/12/30 12:58:59;;;;;;;3.17;1.20;;;;;;;;;;4965668;28;20265;-64
2023/12/30 13:01:26;;;;;;;3.13;0.90;;;;;;;;;;4965352;28;20221;-63
2023/12/30 13:03:54;;;;;;;7.70;1.80;;;;;;;;;;4966403;28;20206;-63
2023/12/30 13:06:22;;;;;;;2.13;1.10;;;;;;;;;;4966716;28;20218;-64
2023/12/30 13:08:52;;;;;;;3.77;0.93;;;;;;;;;;4966908;28;20673;-64
2023/12/30 13:11:25;;;;;;;2.93;1.53;;;;;;;;;;4967063;28;20221;-64
2023/12/30 13:13:53;;;;;;;0.93;0.90;;;;;;;;;;4967115;28;20222;-63
2023/12/30 13:16:22;;;;;;;4.20;1.03;;;;;;;;;;4966538;28;20214;-64
2023/12/30 13:18:49;;;;;;;1.53;1.43;;;;;;;;;;4967017;28;21220;-64
2023/12/30 13:21:16;;;;;;;3.53;1.53;;;;;;;;;;4966725;28;20245;-64
2023/12/30 13:23:43;;;;;;;5.17;1.53;;;;;;;;;;4966697;28;20655;-64
2023/12/30 13:26:12;;;;;;;1.80;1.20;;;;;;;;;;4966664;28;20590;-63
2023/12/30 13:28:39;;;;;;;1.73;1.20;;;;;;;;;;4966864;28;20242;-64
2023/12/30 13:31:06;;;;;;;3.90;1.30;;;;;;;;;;4966862;28;20214;-63
2023/12/30 13:33:35;;;;;;;3.70;1.30;;;;;;;;;;4967407;28;20646;-64
2023/12/30 13:36:06;;;;;;;4.63;1.00;;;;;;;;;;4964861;28;20264;-64
2023/12/30 13:38:39;;;;;;;3.73;1.00;;;;;;;;;;4966852;28;20238;-64
2023/12/30 13:41:06;;;;;;;4.37;1.13;;;;;;;;;;4966195;28;20210;-65
2023/12/30 13:43:33;;;;;;;2.17;0.97;;;;;;;;;;4966644;28;20261;-64
2023/12/30 13:46:20;;;;;;;7.40;1.10;;;;;;;;;;4966672;28;20222;-64
2023/12/30 13:51:44;;;;;;;3.17;0.93;;;;;;;;;;4966925;28;20217;-65
2023/12/30 13:54:11;;;;;;;1.90;1.40;;;;;;;;;;4967025;28;20210;-64
2023/12/30 13:56:42;;;;;;;1.83;0.90;;;;;;;;;;4966126;28;20223;-65
2023/12/30 13:59:11;;;;;;;4.73;1.07;;;;;;;;;;4967101;28;20222;-64
2023/12/30 14:01:38;;;;;;;2.07;1.27;;;;;;;;;;4967299;28;20221;-64
2023/12/30 14:04:07;;;;;;;7.30;1.20;;;;;;;;;;4966912;28;20214;-64
2023/12/30 14:06:37;;;;;;;2.63;0.90;;;;;;;;;;4966853;28;20210;-66
2023/12/30 14:09:19;;;;;;;1.60;0.90;;;;;;;;;;4967175;28;20213;-64
2023/12/30 14:11:49;;;;;;;1.87;1.00;;;;;;;;;;4966863;28;20301;-64
2023/12/30 14:14:16;;;;;;;4.83;0.97;;;;;;;;;;4966792;28;20300;-64
2023/12/30 14:16:44;;;;;;;3.50;0.80;;;;;;;;;;4969981;28;20691;-63
2023/12/30 14:19:14;;;;;;;1.43;0.70;;;;;;;;;;4970419;28;20234;-64
2023/12/30 14:21:41;;;;;;;5.97;1.33;;;;;;;;;;4969691;28;20230;-64
2023/12/30 14:24:11;;;;;;;1.20;0.87;;;;;;;;;;4970154;28;20772;-64
2023/12/30 14:26:38;;;;;;;2.63;0.80;;;;;;;;;;4970330;28;20206;-64
2023/12/30 14:29:05;;;;;;;5.03;1.00;;;;;;;;;;4970348;28;20245;-64
2023/12/30 14:31:32;;;;;;;2.67;1.03;;;;;;;;;;4970063;28;20297;-64
2023/12/30 14:33:59;;;;;;;2.77;0.90;;;;;;;;;;4970139;28;20444;-64
2023/12/30 14:36:27;;;;;;;3.03;1.13;;;;;;;;;;4969412;28;20262;-64
2023/12/30 14:38:54;;;;;;;1.17;1.07;;;;;;;;;;4970324;28;20242;-64
2023/12/30 14:41:21;;;;;;;1.13;0.90;;;;;;;;;;4970291;28;20214;-64
2023/12/30 14:43:50;;;;;;;4.23;0.97;;;;;;;;;;4970122;28;20214;-64
2023/12/30 14:46:17;;;;;;;3.33;0.80;;;;;;;;;;4969785;28;20368;-64
2023/12/30 14:48:44;;;;;;;2.67;1.00;;;;;;;;;;4969955;28;20214;-64